Time;durP1;ratioP1;P1;durP2;ratioP2;P2;SDS_P1;SDS_P2;PMS_P1;PMS_P2;Temp;Humidity;BMP_temperature;BMP_pressure;BME280_temperature;BME280_humidity;BME280_pressure;Samples;Min_cycle;Max_cycle;Signal;HPM_P1;HPM_P2
2023/07/21 00:05:18;;;;;;;1.15;0.30;;;;;;;13.94;100.00;98068.41;15346531;19;20012;-56
2023/07/21 00:10:48;;;;;;;0.85;0.43;;;;;;;13.79;100.00;98060.34;15339999;19;20018;-57
2023/07/21 00:16:18;;;;;;;0.60;0.40;;;;;;;13.66;100.00;98061.88;15347531;19;20010;-58
2023/07/21 00:21:52;;;;;;;0.30;0.30;;;;;;;13.51;100.00;98061.91;15338562;19;20027;-58
2023/07/21 00:27:20;;;;;;;2.05;0.40;;;;;;;13.45;100.00;98051.00;15342919;19;20017;-57
2023/07/21 00:32:46;;;;;;;0.30;0.30;;;;;;;13.39;100.00;98055.28;15282469;19;20002;-58
2023/07/21 00:38:11;;;;;;;1.00;0.40;;;;;;;13.33;100.00;98053.31;15283531;19;20748;-57
2023/07/21 00:43:38;;;;;;;0.77;0.40;;;;;;;13.26;100.00;98051.34;15277314;19;20015;-57
2023/07/21 00:49:03;;;;;;;0.60;0.30;;;;;;;13.17;100.00;98052.50;15284652;19;20033;-59
2023/07/21 00:54:29;;;;;;;1.45;0.40;;;;;;;13.12;100.00;98044.09;15279912;19;20014;-57
2023/07/21 00:59:57;;;;;;;0.40;0.40;;;;;;;13.12;100.00;98040.56;15280311;19;20017;-56
2023/07/21 01:05:23;;;;;;;0.68;0.40;;;;;;;13.08;100.00;98040.09;15278960;19;20359;-56
2023/07/21 01:10:51;;;;;;;0.65;0.50;;;;;;;13.06;100.00;98032.16;15277754;19;20010;-57
2023/07/21 01:16:22;;;;;;;0.40;0.40;;;;;;;13.06;100.00;98024.03;15278223;19;20451;-57
2023/07/21 01:21:57;;;;;;;0.73;0.40;;;;;;;13.06;100.00;98017.81;15274516;19;20750;-51
2023/07/21 01:27:27;;;;;;;0.80;0.50;;;;;;;12.98;100.00;98005.22;15280556;19;20029;-55
2023/07/21 01:32:55;;;;;;;5.37;0.50;;;;;;;12.88;100.00;97994.66;15274892;19;20024;-56
2023/07/21 01:38:22;;;;;;;0.88;0.50;;;;;;;12.77;100.00;97987.88;15279501;19;20264;-56
2023/07/21 01:43:49;;;;;;;1.85;0.50;;;;;;;12.71;100.00;97982.38;15273507;19;20477;-53
2023/07/21 01:49:15;;;;;;;0.40;0.40;;;;;;;12.63;100.00;97981.47;15275288;19;20019;-55
2023/07/21 01:54:45;;;;;;;0.40;0.40;;;;;;;12.59;100.00;97969.31;15273698;19;20027;-57
2023/07/21 02:00:15;;;;;;;0.50;0.50;;;;;;;12.56;100.00;97963.47;15272327;19;20023;-58
2023/07/21 02:05:39;;;;;;;0.40;0.40;;;;;;;12.55;100.00;97961.78;15275753;19;20017;-57
2023/07/21 02:11:04;;;;;;;0.70;0.50;;;;;;;12.52;100.00;97954.91;15273329;19;20040;-55
2023/07/21 02:16:46;;;;;;;0.65;0.40;;;;;;;12.51;100.00;97965.88;15274006;19;20040;-56
2023/07/21 02:22:17;;;;;;;0.52;0.47;;;;;;;12.48;100.00;97959.81;15270167;19;20039;-56
2023/07/21 02:27:42;;;;;;;0.40;0.40;;;;;;;12.54;100.00;97966.31;15277704;19;21209;-55
2023/07/21 02:33:10;;;;;;;1.17;0.40;;;;;;;12.55;100.00;97961.78;15271268;19;20279;-55
2023/07/21 02:38:35;;;;;;;0.50;0.50;;;;;;;12.44;100.00;97973.88;15277542;19;20018;-56
2023/07/21 02:44:00;;;;;;;0.47;0.45;;;;;;;12.36;100.00;97969.38;15275335;19;20404;-54
2023/07/21 02:49:28;;;;;;;1.02;0.50;;;;;;;12.30;100.00;97984.47;15271381;19;20014;-57
2023/07/21 02:54:53;;;;;;;1.05;0.50;;;;;;;12.22;100.00;97981.84;15272581;19;20027;-57
2023/07/21 03:00:19;;;;;;;0.65;0.60;;;;;;;12.18;100.00;97985.91;15270239;19;20031;-57
2023/07/21 03:05:56;;;;;;;0.65;0.52;;;;;;;12.13;100.00;97983.78;15271223;19;20060;-56
2023/07/21 03:11:21;;;;;;;0.95;0.60;;;;;;;12.10;100.00;97983.31;15268139;19;20015;-58
2023/07/21 03:16:57;;;;;;;0.50;0.50;;;;;;;12.05;100.00;97983.84;15274194;19;20542;-58
2023/07/21 03:22:31;;;;;;;1.98;0.52;;;;;;;12.01;100.00;97980.69;15265633;19;20014;-56
2023/07/21 03:27:57;;;;;;;0.57;0.57;;;;;;;11.99;100.00;97988.13;15274987;19;20018;-55
2023/07/21 03:33:24;;;;;;;2.30;0.70;;;;;;;11.97;100.00;97979.31;15267700;19;20014;-57
2023/07/21 03:39:01;;;;;;;1.38;0.60;;;;;;;11.95;100.00;97973.25;15271406;19;20018;-58
2023/07/21 03:44:26;;;;;;;0.60;0.60;;;;;;;11.95;100.00;97970.56;15272056;19;20029;-57
2023/07/21 03:49:52;;;;;;;0.63;0.60;;;;;;;11.96;100.00;97966.84;15270626;19;20014;-57
2023/07/21 03:55:23;;;;;;;0.70;0.70;;;;;;;12.00;100.00;97965.50;15267089;19;20022;-56
2023/07/21 04:00:48;;;;;;;0.88;0.60;;;;;;;12.06;100.00;97971.19;15269688;19;20014;-58
2023/07/21 04:06:14;;;;;;;0.65;0.47;;;;;;;12.06;100.00;97968.47;15280427;19;20014;-57
2023/07/21 04:11:43;;;;;;;0.85;0.60;;;;;;;12.05;100.00;97966.81;15283087;19;20021;-57
2023/07/21 04:17:07;;;;;;;0.60;0.60;;;;;;;12.06;100.00;97953.13;15286796;19;20014;-57
2023/07/21 04:22:38;;;;;;;1.90;0.47;;;;;;;12.07;100.00;97953.97;15278958;19;20015;-56
2023/07/21 04:28:06;;;;;;;0.55;0.50;;;;;;;12.12;100.00;97956.97;15281796;19;20025;-56
2023/07/21 04:33:31;;;;;;;0.73;0.60;;;;;;;12.18;100.00;97956.22;15276895;19;20019;-55
2023/07/21 04:38:57;;;;;;;0.88;0.60;;;;;;;12.27;100.00;97951.59;15284705;19;20054;-56
2023/07/21 04:44:24;;;;;;;1.55;0.70;;;;;;;12.34;100.00;97947.16;15282645;19;20041;-53
2023/07/21 04:49:52;;;;;;;1.15;0.63;;;;;;;12.43;100.00;97953.28;15283620;19;21050;-58
2023/07/21 04:55:18;;;;;;;0.60;0.60;;;;;;;12.51;100.00;97949.66;14772214;19;10001192;-54
2023/07/21 05:00:46;;;;;;;1.17;0.60;;;;;;;12.62;100.00;97957.31;15276087;19;20015;-57
2023/07/21 05:06:11;;;;;;;1.38;0.60;;;;;;;12.71;100.00;97944.53;15281550;19;20022;-55
2023/07/21 05:11:36;;;;;;;2.15;0.68;;;;;;;12.81;100.00;97945.09;15277952;19;20018;-53
2023/07/21 05:17:21;;;;;;;1.10;0.55;;;;;;;12.94;100.00;97939.88;15283825;19;20859;-58
2023/07/21 05:23:02;;;;;;;0.60;0.60;;;;;;;13.06;100.00;97926.69;15275804;19;20030;-57
2023/07/21 05:28:30;;;;;;;0.50;0.50;;;;;;;13.18;100.00;97923.47;15281964;19;20015;-58
2023/07/21 05:34:07;;;;;;;0.60;0.60;;;;;;;13.30;100.00;97913.84;15274933;19;20484;-56
2023/07/21 05:39:33;;;;;;;0.50;0.50;;;;;;;13.38;100.00;97915.59;15277696;19;20010;-57
2023/07/21 05:45:00;;;;;;;1.70;0.50;;;;;;;13.45;100.00;97911.16;15277401;19;20023;-56
2023/07/21 05:50:29;;;;;;;1.05;0.60;;;;;;;13.51;100.00;97915.78;15275346;19;20019;-55
2023/07/21 05:55:55;;;;;;;0.68;0.68;;;;;;;13.56;100.00;97921.47;15279294;19;20045;-56
2023/07/21 06:01:40;;;;;;;0.80;0.60;;;;;;;13.56;100.00;97931.44;15275805;19;20010;-55
2023/07/21 06:07:08;;;;;;;2.35;0.80;;;;;;;13.29;100.00;97963.56;15277290;19;20657;-52
2023/07/21 06:12:45;;;;;;;0.82;0.80;;;;;;;13.33;100.00;97961.34;15273244;19;20508;-53
2023/07/21 06:18:22;;;;;;;1.67;0.77;;;;;;;13.29;100.00;97978.97;15277365;19;20022;-58
2023/07/21 06:23:53;;;;;;;0.95;0.80;;;;;;;13.25;100.00;97978.53;15272355;19;20443;-55
2023/07/21 06:29:18;;;;;;;0.80;0.80;;;;;;;13.24;100.00;97977.66;15277282;19;20042;-56
2023/07/21 06:34:42;;;;;;;0.88;0.85;;;;;;;13.31;100.00;97974.22;15275453;19;20037;-53
2023/07/21 06:40:31;;;;;;;0.90;0.73;;;;;;;13.32;100.00;97968.59;15276751;19;20053;-57
2023/07/21 06:46:30;;;;;;;1.60;0.70;;;;;;;13.43;100.00;97975.44;15276656;19;20019;-57
2023/07/21 06:52:14;;;;;;;4.05;0.80;;;;;;;13.52;100.00;97976.16;15278289;19;20046;-52
2023/07/21 06:57:42;;;;;;;0.98;0.80;;;;;;;13.59;100.00;97968.09;15277342;19;20010;-56
2023/07/21 07:03:01;;;;;;;1.63;0.70;;;;;;;13.64;100.00;97971.91;15273595;19;20462;-57
2023/07/21 07:08:25;;;;;;;1.05;0.90;;;;;;;13.76;100.00;97974.13;15275250;19;20020;-57
2023/07/21 07:13:54;;;;;;;2.83;0.90;;;;;;;13.96;100.00;97977.00;15276180;19;20021;-57
2023/07/21 07:19:19;;;;;;;0.88;0.70;;;;;;;14.16;100.00;97972.63;15276118;19;20082;-53
2023/07/21 07:24:45;;;;;;;1.52;0.70;;;;;;;14.36;100.00;97955.66;15272377;19;20013;-56
2023/07/21 07:30:16;;;;;;;0.70;0.70;;;;;;;14.50;100.00;97953.88;15275959;19;20015;-57
2023/07/21 07:35:49;;;;;;;1.35;0.90;;;;;;;14.56;100.00;97971.22;15273962;19;20015;-55
2023/07/21 07:41:17;;;;;;;1.20;0.80;;;;;;;14.54;100.00;97986.84;15276041;19;20081;-57
2023/07/21 07:46:45;;;;;;;1.90;0.60;;;;;;;14.57;100.00;97959.34;15290103;19;20527;-56
2023/07/21 07:52:10;;;;;;;0.73;0.73;;;;;;;14.55;100.00;97978.53;15285185;19;20015;-56
2023/07/21 07:57:36;;;;;;;2.55;0.80;;;;;;;14.47;100.00;97965.09;15291837;19;20022;-56
2023/07/21 08:03:06;;;;;;;1.02;0.80;;;;;;;14.53;100.00;97958.06;15287450;19;20025;-56
2023/07/21 08:08:31;;;;;;;0.98;0.88;;;;;;;14.60;100.00;97937.28;15290745;19;20040;-57
2023/07/21 08:13:56;;;;;;;1.30;0.80;;;;;;;14.75;100.00;97948.88;15287509;19;20018;-58
2023/07/21 08:19:24;;;;;;;1.02;0.80;;;;;;;14.91;100.00;97949.56;15292233;19;20048;-57
2023/07/21 08:24:50;;;;;;;1.17;0.90;;;;;;;15.00;100.00;97956.50;15290518;19;20530;-57
2023/07/21 08:30:15;;;;;;;1.75;1.00;;;;;;;15.06;100.00;97963.84;15291625;19;20018;-57
2023/07/21 08:35:43;;;;;;;3.35;0.90;;;;;;;15.19;100.00;97963.03;15288950;19;20039;-55
2023/07/21 08:41:10;;;;;;;1.00;0.90;;;;;;;15.29;100.00;97967.28;15278810;19;20085;-57
2023/07/21 08:46:35;;;;;;;1.20;0.88;;;;;;;15.27;100.00;97981.03;15284058;19;20025;-56
2023/07/21 08:52:03;;;;;;;0.88;0.75;;;;;;;15.19;100.00;97981.22;15281180;19;20803;-55
2023/07/21 08:57:29;;;;;;;1.10;1.00;;;;;;;15.07;100.00;97997.22;15285644;19;20478;-57
2023/07/21 09:03:02;;;;;;;1.15;1.05;;;;;;;15.06;100.00;98001.81;15276651;19;20018;-58
2023/07/21 09:08:32;;;;;;;1.80;1.10;;;;;;;15.05;100.00;98016.41;15284811;19;20639;-57
2023/07/21 09:13:59;;;;;;;1.42;1.13;;;;;;;15.00;100.00;98015.34;15280638;19;20078;-56
2023/07/21 09:19:28;;;;;;;1.30;1.20;;;;;;;14.96;100.00;98025.75;15283045;19;20017;-57
2023/07/21 09:24:56;;;;;;;1.20;1.10;;;;;;;14.93;100.00;98026.16;15280920;19;20017;-57
2023/07/21 09:30:21;;;;;;;1.33;1.20;;;;;;;14.96;100.00;98028.47;15282461;19;20022;-57
2023/07/21 09:35:46;;;;;;;1.40;1.30;;;;;;;15.02;100.00;98043.94;15285290;19;20018;-56
2023/07/21 09:41:15;;;;;;;1.20;1.10;;;;;;;15.07;100.00;98044.19;15282647;19;20013;-58
2023/07/21 09:46:41;;;;;;;1.60;1.20;;;;;;;15.12;100.00;98059.88;15280364;19;20019;-58
2023/07/21 09:52:08;;;;;;;2.10;1.40;;;;;;;15.23;100.00;98062.00;15272593;19;20702;-55
2023/07/21 09:57:37;;;;;;;1.73;1.38;;;;;;;15.32;100.00;98073.56;15281169;19;20010;-56
2023/07/21 10:03:05;;;;;;;2.17;1.48;;;;;;;15.39;100.00;98060.84;15277053;19;20014;-58
2023/07/21 10:08:36;;;;;;;2.85;1.50;;;;;;;15.45;100.00;98071.94;15285089;19;20018;-58
2023/07/21 10:14:03;;;;;;;1.67;1.10;;;;;;;15.52;100.00;98056.50;15281622;19;20006;-58
2023/07/21 10:19:30;;;;;;;1.30;1.20;;;;;;;15.52;100.00;98045.66;15278358;19;20022;-58
2023/07/21 10:25:00;;;;;;;2.10;1.35;;;;;;;15.54;100.00;98043.59;15274743;19;20023;-52
2023/07/21 10:30:28;;;;;;;2.05;1.80;;;;;;;15.52;100.00;98037.50;15295088;19;20011;-56
2023/07/21 10:35:53;;;;;;;1.55;1.42;;;;;;;15.48;100.00;98045.22;15295159;19;20090;-53
2023/07/21 10:41:18;;;;;;;1.70;1.60;;;;;;;15.48;100.00;98047.94;15312653;19;20055;-56
2023/07/21 10:46:48;;;;;;;2.05;1.70;;;;;;;15.60;100.00;98056.34;15326860;19;20010;-57
2023/07/21 10:52:19;;;;;;;1.60;1.50;;;;;;;15.75;100.00;98047.19;15322134;19;20007;-57
2023/07/21 10:57:44;;;;;;;1.50;1.40;;;;;;;15.91;100.00;98057.75;15323591;19;20022;-56
2023/07/21 11:03:14;;;;;;;1.77;1.63;;;;;;;16.00;100.00;98026.63;15274539;19;20003;-57
2023/07/21 11:08:39;;;;;;;1.45;1.23;;;;;;;16.10;100.00;98019.94;15277426;19;20043;-58
2023/07/21 11:14:04;;;;;;;2.13;1.40;;;;;;;16.17;100.00;98008.03;15275439;19;20017;-55
2023/07/21 11:19:41;;;;;;;1.75;1.33;;;;;;;16.26;100.00;97992.38;15274763;19;20410;-56
2023/07/21 11:25:12;;;;;;;1.55;0.90;;;;;;;16.42;100.00;97973.94;15268223;19;20022;-57
2023/07/21 11:30:37;;;;;;;1.20;1.10;;;;;;;16.55;100.00;97949.47;15273782;19;20018;-56
2023/07/21 11:36:13;;;;;;;2.22;1.15;;;;;;;16.66;100.00;97933.53;15272793;19;20521;-55
2023/07/21 11:41:57;;;;;;;1.20;1.10;;;;;;;16.80;100.00;97935.19;15272262;19;20022;-57
2023/07/21 11:47:22;;;;;;;1.40;1.00;;;;;;;16.92;100.00;97928.03;15274520;19;20015;-57
2023/07/21 11:52:50;;;;;;;2.35;0.95;;;;;;;17.00;100.00;97917.97;15265224;19;20023;-57
2023/07/21 11:58:14;;;;;;;1.70;1.00;;;;;;;17.13;100.00;97928.81;15269793;19;20519;-58
2023/07/21 12:03:40;;;;;;;0.90;0.60;;;;;;;17.20;100.00;97917.91;15270050;19;20019;-56
2023/07/21 12:09:12;;;;;;;1.33;0.70;;;;;;;17.26;100.00;97900.72;15270416;19;20035;-57
2023/07/21 12:14:38;;;;;;;0.95;0.70;;;;;;;17.53;100.00;97911.44;15266346;19;20074;-58
2023/07/21 12:20:03;;;;;;;1.08;0.98;;;;;;;17.68;100.00;97911.16;15271404;19;20029;-58
2023/07/21 12:25:32;;;;;;;4.45;1.10;;;;;;;17.91;100.00;97905.09;15270080;19;20017;-58
2023/07/21 12:30:57;;;;;;;2.15;0.90;;;;;;;18.10;100.00;97903.31;15276455;19;20100;-58
2023/07/21 12:36:21;;;;;;;1.02;0.80;;;;;;;18.25;100.00;97889.31;15285695;19;20014;-58
2023/07/21 12:41:48;;;;;;;1.40;0.70;;;;;;;18.37;100.00;97894.03;15283828;19;20019;-59
2023/07/21 12:47:15;;;;;;;1.23;0.88;;;;;;;18.61;100.00;97890.44;15283982;19;20018;-58
2023/07/21 12:52:39;;;;;;;0.80;0.80;;;;;;;18.66;100.00;97883.47;15277892;19;20632;-58
2023/07/21 12:58:08;;;;;;;0.80;0.80;;;;;;;18.70;100.00;97869.16;15282874;19;20275;-58
2023/07/21 13:03:32;;;;;;;1.15;0.88;;;;;;;18.86;100.00;97855.97;15276071;19;20010;-58
2023/07/21 13:08:58;;;;;;;0.77;0.60;;;;;;;19.11;100.00;97855.03;15283755;19;20219;-58
2023/07/21 13:14:26;;;;;;;1.00;0.60;;;;;;;19.21;100.00;97850.69;15281471;19;20022;-58
2023/07/21 13:19:52;;;;;;;1.17;0.68;;;;;;;19.33;100.00;97848.00;15279884;19;20014;-58
2023/07/21 13:25:17;;;;;;;1.60;0.88;;;;;;;19.48;100.00;97842.09;15281871;19;20007;-59
2023/07/21 13:30:44;;;;;;;0.70;0.70;;;;;;;19.60;100.00;97836.66;15280833;19;20399;-59
2023/07/21 13:36:10;;;;;;;0.70;0.70;;;;;;;19.80;100.00;97835.53;15275934;19;20020;-59
2023/07/21 13:41:35;;;;;;;1.05;0.85;;;;;;;19.85;100.00;97833.75;15278770;19;20010;-58
2023/07/21 13:47:03;;;;;;;1.20;0.80;;;;;;;19.79;100.00;97829.22;15279989;19;20442;-58
2023/07/21 13:52:28;;;;;;;0.63;0.60;;;;;;;19.83;100.00;97824.09;15279116;19;20370;-59
2023/07/21 13:57:54;;;;;;;0.85;0.70;;;;;;;19.80;100.00;97836.34;15282511;19;20382;-59
2023/07/21 14:03:22;;;;;;;0.82;0.68;;;;;;;19.83;100.00;97824.94;15276246;19;20032;-59
2023/07/21 14:08:47;;;;;;;0.85;0.77;;;;;;;19.77;100.00;97812.22;15277339;19;20018;-59
2023/07/21 14:14:13;;;;;;;0.73;0.60;;;;;;;19.74;100.00;97803.66;15279133;19;20014;-58
2023/07/21 14:19:48;;;;;;;1.30;0.60;;;;;;;19.69;100.00;97797.03;15278733;19;20098;-59
2023/07/21 14:25:14;;;;;;;0.60;0.60;;;;;;;19.71;100.00;97802.25;15274989;19;20343;-58
2023/07/21 14:30:38;;;;;;;1.05;0.50;;;;;;;19.78;100.00;97800.22;15278017;19;20022;-57
2023/07/21 14:36:06;;;;;;;0.60;0.60;;;;;;;19.60;100.00;97794.84;15280466;19;20028;-57
2023/07/21 14:41:31;;;;;;;0.50;0.50;;;;;;;19.51;100.00;97780.69;15273008;19;20014;-57
2023/07/21 14:46:57;;;;;;;0.68;0.50;;;;;;;19.42;100.00;97760.25;15278808;19;20011;-57
2023/07/21 14:52:24;;;;;;;1.23;0.80;;;;;;;19.35;100.00;97763.09;15274368;19;20014;-60
2023/07/21 14:57:49;;;;;;;2.05;0.70;;;;;;;19.31;100.00;97773.66;15280021;19;20015;-59
2023/07/21 15:03:13;;;;;;;0.70;0.70;;;;;;;19.29;100.00;97767.59;15273035;19;20032;-58
2023/07/21 15:08:40;;;;;;;1.85;0.77;;;;;;;19.23;100.00;97763.91;15276358;19;20396;-58
2023/07/21 15:14:05;;;;;;;0.98;0.65;;;;;;;19.22;100.00;97764.97;15266164;19;20098;-59
2023/07/21 15:19:30;;;;;;;1.48;0.70;;;;;;;19.16;100.00;97765.06;15269506;19;20026;-58
2023/07/21 15:24:57;;;;;;;1.15;0.70;;;;;;;19.13;100.00;97771.84;15271829;19;20078;-60
2023/07/21 15:30:23;;;;;;;0.60;0.60;;;;;;;19.02;100.00;97786.28;15272076;19;20481;-59
2023/07/21 15:35:53;;;;;;;0.82;0.70;;;;;;;19.00;100.00;97786.50;15273489;19;20027;-59
2023/07/21 15:41:20;;;;;;;0.50;0.50;;;;;;;19.01;100.00;97785.44;15274610;19;20010;-57
2023/07/21 15:46:46;;;;;;;0.80;0.50;;;;;;;19.08;100.00;97790.81;15306726;19;20011;-56
2023/07/21 15:52:11;;;;;;;0.63;0.52;;;;;;;19.03;100.00;97783.31;15323418;19;20015;-57
2023/07/21 15:57:38;;;;;;;0.70;0.60;;;;;;;18.94;100.00;97801.09;15330084;19;20541;-58
2023/07/21 16:03:04;;;;;;;0.50;0.50;;;;;;;18.88;100.00;97802.81;15331608;19;20021;-58
2023/07/21 16:08:29;;;;;;;1.40;0.60;;;;;;;18.81;100.00;97817.59;15346211;19;20046;-57
2023/07/21 16:14:03;;;;;;;1.55;0.50;;;;;;;18.67;100.00;97833.31;15330508;19;20011;-58
2023/07/21 16:19:27;;;;;;;0.80;0.50;;;;;;;18.03;100.00;97858.94;15324444;19;20018;-58
2023/07/21 16:24:52;;;;;;;3.58;0.60;;;;;;;17.20;100.00;97880.66;15333103;19;20010;-57
2023/07/21 16:30:19;;;;;;;1.42;0.77;;;;;;;16.49;100.00;97890.50;15327797;19;20010;-55
2023/07/21 16:35:45;;;;;;;0.68;0.60;;;;;;;15.96;100.00;97897.66;15285687;19;20358;-59
2023/07/21 16:41:10;;;;;;;0.60;0.60;;;;;;;15.71;100.00;97892.81;15282738;19;20014;-58
2023/07/21 16:46:37;;;;;;;2.05;0.60;;;;;;;15.60;100.00;97898.03;15279246;19;20017;-57
2023/07/21 16:52:03;;;;;;;0.50;0.50;;;;;;;15.53;100.00;97908.88;15281778;19;20076;-62
2023/07/21 16:57:28;;;;;;;0.40;0.40;;;;;;;15.43;100.00;97908.44;15282739;19;20067;-59
2023/07/21 17:02:56;;;;;;;0.80;0.50;;;;;;;15.40;100.00;97910.50;15279383;19;20080;-60
2023/07/21 17:08:21;;;;;;;2.58;0.60;;;;;;;15.41;100.00;97919.47;15284158;19;20011;-57
2023/07/21 17:13:47;;;;;;;0.60;0.60;;;;;;;15.38;100.00;97918.03;15279658;19;20015;-58
2023/07/21 17:19:14;;;;;;;1.13;0.60;;;;;;;15.38;100.00;97928.06;15281731;19;20031;-59
2023/07/21 17:24:40;;;;;;;0.98;0.70;;;;;;;15.36;100.00;97947.25;15278774;19;20006;-59
2023/07/21 17:30:05;;;;;;;1.48;0.63;;;;;;;15.38;100.00;97952.47;15281478;19;20465;-60
2023/07/21 17:35:33;;;;;;;1.40;0.90;;;;;;;15.38;100.00;97953.31;15280037;19;20542;-58
2023/07/21 17:41:04;;;;;;;2.00;0.90;;;;;;;15.43;100.00;97963.56;15278853;19;20093;-60
2023/07/21 17:46:29;;;;;;;1.77;0.85;;;;;;;15.49;100.00;97970.03;15274944;19;20021;-58
2023/07/21 17:51:56;;;;;;;1.10;0.90;;;;;;;15.54;100.00;97981.13;15274773;19;20015;-59
2023/07/21 17:57:21;;;;;;;1.00;0.90;;;;;;;15.56;100.00;97984.50;15276865;19;20019;-54
2023/07/21 18:02:45;;;;;;;0.80;0.80;;;;;;;15.61;100.00;97986.59;15278248;19;20018;-62
2023/07/21 18:08:14;;;;;;;0.90;0.80;;;;;;;15.60;100.00;97979.47;15281524;19;20014;-55
2023/07/21 18:13:39;;;;;;;1.38;0.85;;;;;;;15.59;100.00;97970.47;15276304;19;20094;-53
2023/07/21 18:19:05;;;;;;;1.00;0.90;;;;;;;15.56;100.00;97984.50;15279154;19;20538;-56
2023/07/21 18:24:32;;;;;;;0.95;0.70;;;;;;;15.56;100.00;97979.88;15274227;19;20184;-55
2023/07/21 18:29:57;;;;;;;1.00;0.90;;;;;;;15.55;100.00;97989.06;15278175;19;20049;-55
2023/07/21 18:35:26;;;;;;;0.88;0.82;;;;;;;15.53;100.00;97982.19;15278515;19;20036;-55
2023/07/21 18:40:54;;;;;;;1.23;0.88;;;;;;;15.49;100.00;97976.31;15280227;19;20085;-57
2023/07/21 18:46:18;;;;;;;1.08;0.95;;;;;;;15.46;100.00;97984.03;15276360;19;20032;-57
2023/07/21 18:51:43;;;;;;;1.48;0.90;;;;;;;15.40;100.00;98000.09;15276574;19;20014;-58
2023/07/21 18:57:11;;;;;;;1.00;0.90;;;;;;;15.34;100.00;98011.78;15274989;19;20046;-56
2023/07/21 19:02:36;;;;;;;1.90;1.27;;;;;;;15.27;100.00;98029.88;15274719;19;20025;-58
2023/07/21 19:08:00;;;;;;;2.22;1.20;;;;;;;15.19;100.00;98040.91;15276148;19;20086;-58
2023/07/21 19:13:28;;;;;;;1.45;1.35;;;;;;;15.10;100.00;98041.09;15272958;19;20015;-54
2023/07/21 19:18:53;;;;;;;1.20;1.10;;;;;;;15.10;100.00;98060.06;15277536;19;20021;-57
2023/07/21 19:24:24;;;;;;;1.30;1.20;;;;;;;15.08;100.00;98073.00;15270512;19;20514;-58
2023/07/21 19:29:51;;;;;;;2.97;1.20;;;;;;;15.04;100.00;98093.41;15265223;19;20018;-58
2023/07/21 19:35:17;;;;;;;1.92;1.33;;;;;;;15.04;100.00;98106.16;15275761;19;20015;-56
2023/07/21 19:40:42;;;;;;;1.30;1.20;;;;;;;15.01;100.00;98122.81;15266807;19;20601;-54
2023/07/21 19:46:10;;;;;;;2.75;1.40;;;;;;;14.98;100.00;98128.63;15283862;19;20477;-54
2023/07/21 19:51:37;;;;;;;2.22;1.40;;;;;;;14.93;100.00;98131.94;15286286;19;20012;-56
2023/07/21 19:57:03;;;;;;;1.40;1.30;;;;;;;14.88;100.00;98137.09;15288438;19;20037;-55
2023/07/21 20:02:34;;;;;;;1.85;1.35;;;;;;;14.79;100.00;98134.53;15277186;19;20015;-58
2023/07/21 20:07:59;;;;;;;1.42;1.30;;;;;;;14.73;100.00;98143.47;15283795;19;20077;-54
2023/07/21 20:13:24;;;;;;;1.60;1.50;;;;;;;14.68;100.00;98147.78;15281328;19;20088;-57
2023/07/21 20:18:52;;;;;;;2.90;1.60;;;;;;;14.61;100.00;98161.25;15289309;19;20041;-55
2023/07/21 20:29:41;;;;;;;1.60;1.40;;;;;;;14.46;100.00;98156.72;15283766;19;20074;-55
2023/07/21 20:35:08;;;;;;;1.40;1.30;;;;;;;14.40;100.00;98159.38;15312826;19;20031;-58
2023/07/21 20:40:33;;;;;;;1.45;1.30;;;;;;;14.33;100.00;98153.88;15335279;19;20010;-59
2023/07/21 20:46:00;;;;;;;1.55;1.40;;;;;;;14.29;100.00;98153.41;15329055;19;19999;-59
2023/07/21 20:51:27;;;;;;;2.17;1.40;;;;;;;14.25;100.00;98162.13;15309557;19;20026;-56
2023/07/21 20:56:52;;;;;;;1.70;1.20;;;;;;;14.20;100.00;98170.84;15278829;19;20698;-57
2023/07/21 21:02:10;;;;;;;3.47;1.50;;;;;;;14.20;100.00;98180.81;15276980;19;20027;-56
2023/07/21 21:07:37;;;;;;;1.85;1.50;;;;;;;14.16;100.00;98181.22;15270481;19;20023;-57
2023/07/21 21:13:02;;;;;;;3.95;1.50;;;;;;;14.07;100.00;98181.50;15270320;19;20476;-57
2023/07/21 21:18:27;;;;;;;1.85;1.25;;;;;;;13.92;100.00;98157.16;15280292;19;20015;-55
2023/07/21 21:24:02;;;;;;;2.80;1.00;;;;;;;13.80;100.00;98141.41;15265461;19;20014;-57
2023/07/21 21:29:27;;;;;;;2.20;1.17;;;;;;;13.69;100.00;98140.00;15276679;19;20010;-57
2023/07/21 21:34:51;;;;;;;2.65;1.27;;;;;;;13.60;100.00;98140.28;15278075;19;20014;-57
2023/07/21 21:40:18;;;;;;;1.92;1.40;;;;;;;13.48;100.00;98148.06;15268483;19;20024;-57
2023/07/21 21:45:43;;;;;;;3.25;1.20;;;;;;;13.44;100.00;98144.88;15275034;19;20025;-57
2023/07/21 21:51:08;;;;;;;3.03;1.30;;;;;;;13.41;100.00;98142.53;15272798;19;20029;-58
2023/07/21 21:56:36;;;;;;;3.03;1.10;;;;;;;13.33;100.00;98148.03;15275679;19;20010;-58
2023/07/21 22:02:01;;;;;;;2.13;1.20;;;;;;;13.21;100.00;98145.78;15272234;19;20013;-58
2023/07/21 22:07:26;;;;;;;1.73;1.10;;;;;;;13.15;100.00;98157.31;15273225;19;20477;-52
2023/07/21 22:12:53;;;;;;;2.35;1.20;;;;;;;13.06;100.00;98163.84;15270170;19;20020;-57
2023/07/21 22:18:20;;;;;;;1.67;1.00;;;;;;;13.03;100.00;98172.31;15278206;19;20002;-57
2023/07/21 22:23:45;;;;;;;2.55;1.40;;;;;;;13.01;100.00;98186.03;15271841;19;20394;-57
2023/07/21 22:29:12;;;;;;;1.88;1.20;;;;;;;13.00;100.00;98200.56;15273971;19;20542;-61
2023/07/21 22:34:38;;;;;;;4.57;1.42;;;;;;;12.99;100.00;98195.34;15271824;19;20014;-56
2023/07/21 22:40:04;;;;;;;3.30;1.30;;;;;;;12.98;100.00;98194.50;15274135;19;20503;-57
2023/07/21 22:45:31;;;;;;;2.47;1.25;;;;;;;13.00;100.00;98197.88;15269882;19;20010;-57
2023/07/21 22:50:56;;;;;;;1.90;1.33;;;;;;;13.02;100.00;98197.66;15273334;19;20024;-56
2023/07/21 22:56:22;;;;;;;4.00;1.40;;;;;;;12.99;100.00;98200.75;15272413;19;20018;-56
2023/07/21 23:01:49;;;;;;;2.53;1.30;;;;;;;12.95;100.00;98211.94;15272490;19;20014;-56
2023/07/21 23:07:14;;;;;;;2.28;1.55;;;;;;;12.90;100.00;98203.50;15275078;19;20082;-57
2023/07/21 23:12:39;;;;;;;3.47;1.50;;;;;;;12.86;100.00;98206.75;15270543;19;20031;-57
2023/07/21 23:18:07;;;;;;;2.90;1.60;;;;;;;12.81;100.00;98220.00;15270533;19;20035;-58
2023/07/21 23:23:38;;;;;;;3.85;1.50;;;;;;;12.77;100.00;98228.47;15269759;19;20770;-58
2023/07/21 23:29:04;;;;;;;2.65;1.42;;;;;;;12.75;100.00;98244.00;15267519;19;20026;-55
2023/07/21 23:34:32;;;;;;;3.17;1.50;;;;;;;12.71;100.00;98242.69;15272193;19;20032;-57
2023/07/21 23:39:57;;;;;;;5.15;1.55;;;;;;;12.68;100.00;98253.88;15272039;19;20010;-58
2023/07/21 23:45:23;;;;;;;3.63;1.52;;;;;;;12.61;100.00;98253.75;15265061;19;20037;-56
2023/07/21 23:50:50;;;;;;;2.72;1.50;;;;;;;12.54;100.00;98247.34;15272439;19;20011;-57
2023/07/21 23:56:22;;;;;;;7.82;1.60;;;;;;;12.46;100.00;98244.72;15267240;19;20085;-77
